Startpagina
METAR-TAF:

METAR-TAF

Vliegvelden :

Internationale luchthaven La Aurora

Guatemala-stad, Guatemala

breedte: 14-35N, lengte: 090-31W, hoogte: 1489 m

Actueel weer

Dit bericht is 52 minuten geleden gemaakt, om 05:00 UTC
Wind 12 kt uit het noordnoordoosten
Temperatuur 16°C
Vochtigheid 94%
Druk 1027 hPa
Zicht 10 km of meer
Gebroken wolken op 1200 ft

METAR: MGGT 090500Z 02012KT 9999 BKN012 16/15 Q1027 A3033

Tijdstip: 23:52 (05:52 UTC)

Verwachting

Verwachting geldig van 09 om 06 UTC tot 10 om 06 UTC
Wind 12 kt uit het noorden
Zicht 10 km of meer
Gebroken wolken op 1200 ft
Wijzigt naar
van 09 om 14 UTC tot 09 om 16 UTC
Weinig wolken op 1800 ft
Tijdelijke
van 09 om 19 UTC tot 09 om 24 UTC
Wind 10 kt uit het noordoosten
Verspreide wolken op 2000 ft
Wijzigt naar
van 10 om 01 UTC tot 10 om 03 UTC
Wind 8 kt uit het noorden
Weinig wolken op 1600 ft

TAF: MGGT 0906/1006 36012KT 9999 BKN012 TX26/0920Z TN13/0912Z BECMG 0914/0916 FEW018 TEMPO 0919/0924 05010KT SCT020 BECMG 1001/1003 36008KT FEW016

Waarnemingen en weersverwachtingen van meer dan 4000 vliegvelden (METAR en TAF).

De beschikbare stations zijn de gele en rode punten op de kaart.

Ga met uw muis naar het station om de naam te zien.

Klik dan om waarnemingen en weersverwachtingen te zien.

kaart wijzigen: klik op de groene knoppen met een zwart kruis om in te zoomen, op de groene knop met een streepje om uit te zoomen of op de groene pijlen voor aangrenzende kaarten.


METAR-TAF: